Time;durP1;ratioP1;P1;durP2;ratioP2;P2;SDS_P1;SDS_P2;PMS_P1;PMS_P2;Temp;Humidity;BMP_temperature;BMP_pressure;BME280_temperature;BME280_humidity;BME280_pressure;Samples;Min_cycle;Max_cycle;Signal;HPM_P1;HPM_P2
2024/03/18 00:00:28;;;;;;;4.77;2.50;;;4.50;99.90;;;-141.84;59.23;18529.59;5083575;28;20615;-61
2024/03/18 00:02:56;;;;;;;3.93;2.07;;;4.50;99.90;;;-141.84;59.08;18521.47;5076072;28;20260;-60
2024/03/18 00:05:23;;;;;;;6.07;2.00;;;4.50;99.90;;;-141.84;59.52;18566.16;5081105;28;20231;-61
2024/03/18 00:07:52;;;;;;;7.40;2.40;;;4.40;99.90;;;-141.84;60.06;18503.19;5063905;28;20209;-65
2024/03/18 00:10:19;;;;;;;4.43;2.23;;;4.30;99.90;;;-141.84;58.86;18564.13;5072032;28;20274;-60
2024/03/18 00:12:47;;;;;;;5.67;2.63;;;4.40;99.90;;;-141.84;59.64;18562.09;5062210;28;20284;-60
2024/03/18 00:15:16;;;;;;;5.43;2.30;;;4.40;99.90;;;-141.84;59.89;18545.84;5073723;28;20218;-61
2024/03/18 00:17:44;;;;;;;3.50;1.90;;;4.40;99.90;;;-141.84;60.27;18515.38;5081552;28;20219;-61
2024/03/18 00:20:13;;;;;;;6.13;1.90;;;4.30;99.90;;;-141.84;60.22;18549.91;5081513;28;20206;-61
2024/03/18 00:22:42;;;;;;;5.40;2.03;;;4.30;99.90;;;-141.84;59.86;18509.28;5063135;28;20690;-62
2024/03/18 00:25:12;;;;;;;3.50;2.27;;;4.30;99.90;;;-141.84;59.33;18549.91;5078307;28;20226;-64
2024/03/18 00:27:40;;;;;;;4.73;1.83;;;4.30;99.90;;;-141.84;59.90;18507.25;5087055;28;20619;-63
2024/03/18 00:30:11;;;;;;;5.43;2.47;;;4.30;99.90;;;-141.84;59.95;18523.50;5063584;28;20232;-64
2024/03/18 00:32:43;;;;;;;5.30;2.17;;;4.30;99.90;;;-141.84;59.29;18533.66;5013330;28;20232;-65
2024/03/18 00:35:13;;;;;;;3.90;2.30;;;4.30;99.90;;;-141.84;60.66;18531.63;5065183;28;20199;-65
2024/03/18 00:37:41;;;;;;;3.80;1.80;;;4.20;99.90;;;-141.84;59.69;18525.53;5081239;28;20581;-64
2024/03/18 00:40:12;;;;;;;5.73;2.20;;;4.30;99.90;;;-141.84;59.41;18545.84;5082236;28;20214;-61
2024/03/18 00:42:38;;;;;;;5.60;2.30;;;4.40;99.90;;;-141.84;60.05;18513.34;5086302;28;20224;-60
2024/03/18 00:45:10;;;;;;;5.53;2.40;;;4.30;99.90;;;-141.84;60.23;18537.72;5079893;28;20232;-61
2024/03/18 00:47:36;;;;;;;6.57;2.40;;;4.30;99.90;;;-141.84;60.96;18513.34;5080191;28;20236;-64
2024/03/18 00:50:05;;;;;;;6.57;2.80;;;4.30;99.90;;;-141.84;60.44;18531.63;5061729;28;20206;-64
2024/03/18 00:52:33;;;;;;;6.67;2.67;;;4.30;99.90;;;-141.84;60.66;18537.72;5062660;28;20203;-61
2024/03/18 00:55:02;;;;;;;4.60;2.90;;;4.20;99.90;;;-141.84;61.18;18551.94;5077911;28;20706;-66
2024/03/18 00:57:32;;;;;;;5.67;3.17;;;4.20;99.90;;;-141.84;60.86;18484.91;5080356;28;20218;-61
2024/03/18 00:59:59;;;;;;;5.10;3.07;;;4.20;99.90;;;-141.84;60.84;18513.34;5073057;28;20335;-61
2024/03/18 01:02:27;;;;;;;5.37;3.00;;;4.20;99.90;;;-141.84;60.75;18505.22;5055564;28;20235;-60
2024/03/18 01:04:54;;;;;;;5.17;3.30;;;4.20;99.90;;;-141.84;60.18;18529.59;5081856;28;20244;-62
2024/03/18 01:07:21;;;;;;;6.00;3.03;;;4.20;99.90;;;-141.84;60.34;18531.63;5081333;28;20218;-62
2024/03/18 01:09:49;;;;;;;5.53;3.37;;;4.20;99.90;;;-141.84;59.86;18549.91;5082599;28;20225;-61
2024/03/18 01:12:17;;;;;;;6.07;3.10;;;4.30;99.90;;;-141.84;60.49;18513.34;5081812;28;20232;-61
2024/03/18 01:14:46;;;;;;;5.93;3.43;;;4.30;99.90;;;-141.84;59.79;18533.66;5073374;28;20223;-60
2024/03/18 01:17:17;;;;;;;5.50;3.27;;;4.30;99.90;;;-141.84;60.51;18562.09;5060776;28;20187;-65
2024/03/18 01:19:45;;;;;;;5.90;3.63;;;4.20;99.90;;;-141.84;60.40;18491.00;5060556;28;20741;-61
2024/03/18 01:22:14;;;;;;;4.40;3.40;;;4.20;99.90;;;-141.84;60.78;18501.16;5075006;28;20223;-60
2024/03/18 01:24:41;;;;;;;7.07;4.20;;;4.20;99.90;;;-141.84;60.12;18533.66;5073630;28;20234;-61
2024/03/18 01:27:09;;;;;;;6.27;3.27;;;4.20;99.90;;;-141.84;60.50;18545.84;5077362;28;20227;-62
2024/03/18 01:29:36;;;;;;;5.90;3.80;;;4.20;99.90;;;-141.84;60.48;18509.28;5067052;28;20232;-61
2024/03/18 01:32:05;;;;;;;6.93;3.87;;;4.10;99.90;;;-141.84;59.95;18523.50;5072194;28;20229;-61
2024/03/18 01:34:33;;;;;;;5.43;3.63;;;4.10;99.90;;;-141.84;59.53;18521.47;5064161;28;20230;-62
2024/03/18 01:37:00;;;;;;;4.33;3.47;;;4.20;99.90;;;-141.84;59.03;18533.66;5079082;28;20212;-60
2024/03/18 01:39:27;;;;;;;7.03;4.20;;;4.30;99.90;;;-141.84;59.22;18501.16;5087950;28;20217;-61
2024/03/18 01:41:57;;;;;;;5.93;4.20;;;4.30;99.90;;;-141.84;59.46;18503.19;5078995;28;20241;-64
2024/03/18 01:44:25;;;;;;;5.80;4.30;;;4.30;99.90;;;-141.84;59.95;18558.03;5078865;28;20222;-62
2024/03/18 01:46:57;;;;;;;6.17;4.13;;;4.20;99.90;;;-141.84;59.95;18553.97;5061790;28;20225;-60
2024/03/18 01:49:26;;;;;;;4.90;3.93;;;4.20;99.90;;;-141.84;60.06;18551.94;5079555;28;20212;-62
2024/03/18 01:51:53;;;;;;;5.33;4.03;;;4.20;99.90;;;-141.84;59.30;18547.88;5079388;28;20694;-62
2024/03/18 01:54:21;;;;;;;8.30;4.00;;;4.20;99.90;;;-141.84;59.96;18521.47;5087197;28;20214;-60
2024/03/18 01:56:48;;;;;;;6.77;4.20;;;4.10;99.90;;;-141.84;59.77;18572.25;5077946;28;20221;-61
2024/03/18 01:59:15;;;;;;;6.50;4.30;;;4.20;99.90;;;-141.84;59.95;18513.34;5070772;28;20247;-62
2024/03/18 02:01:43;;;;;;;5.67;4.67;;;4.10;99.90;;;-141.84;59.91;18513.34;5082277;28;20203;-62
2024/03/18 02:04:11;;;;;;;8.53;4.70;;;4.10;99.90;;;-141.84;59.75;18537.72;5072857;28;20220;-61
2024/03/18 02:06:42;;;;;;;8.13;4.70;;;4.10;99.90;;;-141.84;59.35;18558.03;5079085;28;20738;-67
2024/03/18 02:09:10;;;;;;;8.07;4.50;;;4.20;99.90;;;-141.84;60.52;18523.50;5075922;28;20227;-61
2024/03/18 02:11:37;;;;;;;6.73;4.60;;;4.10;99.90;;;-141.84;60.51;18521.47;5051329;28;20304;-61
2024/03/18 02:14:15;;;;;;;6.67;4.70;;;4.00;99.90;;;-141.84;60.96;18495.06;5059288;28;20682;-61
2024/03/18 02:16:42;;;;;;;6.50;4.23;;;4.00;99.90;;;-141.84;62.00;18497.09;5014549;28;20596;-61
2024/03/18 02:19:10;;;;;;;5.73;4.40;;;4.00;99.90;;;-141.84;61.15;18507.25;5062699;28;20217;-60
2024/03/18 02:21:39;;;;;;;6.47;4.40;;;4.00;99.90;;;-141.84;60.94;18513.34;5078312;28;20269;-62
2024/03/18 02:24:08;;;;;;;7.33;4.80;;;3.90;99.90;;;-141.84;60.23;18503.19;5089251;28;20216;-60
2024/03/18 02:26:35;;;;;;;6.67;4.63;;;4.00;99.90;;;-141.84;59.90;18537.72;5083884;28;20284;-60
2024/03/18 02:29:03;;;;;;;8.13;4.80;;;4.00;99.90;;;-141.84;59.74;18513.34;5067389;28;20197;-61
2024/03/18 02:31:30;;;;;;;7.00;5.00;;;4.10;99.90;;;-141.84;60.36;18525.53;5074439;28;20195;-61
2024/03/18 02:33:57;;;;;;;8.33;4.93;;;4.00;99.90;;;-141.84;61.30;18488.97;5064861;28;20210;-49
2024/03/18 02:36:25;;;;;;;7.77;4.17;;;3.90;99.90;;;-141.84;60.63;18521.47;5064479;28;20244;-53
2024/03/18 02:38:56;;;;;;;7.90;4.67;;;3.90;99.90;;;-141.84;60.98;18499.13;5072871;28;20216;-53
2024/03/18 02:41:25;;;;;;;8.87;4.50;;;3.90;99.90;;;-141.84;62.13;18501.16;5052283;28;20221;-54
2024/03/18 02:43:54;;;;;;;6.07;4.40;;;3.70;99.90;;;-141.84;62.57;18497.09;5071656;28;20206;-54
2024/03/18 02:46:21;;;;;;;7.13;4.63;;;3.70;99.90;;;-141.84;62.23;18501.16;5081242;28;20224;-53
2024/03/18 02:48:51;;;;;;;6.47;4.30;;;3.70;99.90;;;-141.84;62.76;18525.53;5075733;28;20278;-52
2024/03/18 02:51:19;;;;;;;8.03;4.70;;;3.70;99.90;;;-141.84;62.56;18486.94;5074674;28;20219;-51
2024/03/18 02:53:46;;;;;;;7.10;4.67;;;3.70;99.90;;;-141.84;62.75;18478.81;5081587;28;20218;-54
2024/03/18 02:56:17;;;;;;;7.87;4.47;;;3.60;99.90;;;-141.84;63.58;18464.59;5072988;28;20201;-50
2024/03/18 02:58:46;;;;;;;6.07;4.40;;;3.60;99.90;;;-141.84;63.21;18503.19;5083597;28;20195;-61
2024/03/18 03:01:13;;;;;;;8.30;5.33;;;3.60;99.90;;;-141.84;63.61;18497.09;5064592;28;20228;-52
2024/03/18 03:03:41;;;;;;;6.07;4.50;;;3.50;99.90;;;-141.84;64.52;18497.09;5077464;28;20224;-53
2024/03/18 03:06:09;;;;;;;7.57;5.07;;;3.40;99.90;;;-141.84;65.00;18486.94;5082910;28;20218;-55
2024/03/18 03:08:36;;;;;;;7.27;4.13;;;3.40;99.90;;;-141.84;65.32;18501.16;5082442;28;20223;-55
2024/03/18 03:11:07;;;;;;;7.03;4.60;;;3.30;99.90;;;-141.84;65.41;18480.84;5064413;28;20295;-60
2024/03/18 03:13:34;;;;;;;7.23;4.50;;;3.30;99.90;;;-141.84;65.13;18499.13;5079853;28;20274;-60
2024/03/18 03:16:03;;;;;;;8.33;4.10;;;3.30;99.90;;;-141.84;64.96;18484.91;5086042;28;20213;-61
2024/03/18 03:18:31;;;;;;;6.03;4.53;;;3.30;99.90;;;-141.84;65.39;18513.34;5083231;28;20227;-62
2024/03/18 03:20:58;;;;;;;7.40;4.37;;;3.30;99.90;;;-141.84;65.65;18464.59;5074001;28;20222;-61
2024/03/18 03:23:26;;;;;;;6.97;4.60;;;3.20;99.90;;;-141.84;65.74;18491.00;5069592;28;20226;-60
2024/03/18 03:25:58;;;;;;;7.40;4.60;;;3.20;99.90;;;-141.84;66.06;18484.91;5063160;28;20281;-61
2024/03/18 03:28:26;;;;;;;8.40;4.40;;;3.20;99.90;;;-141.84;66.48;18468.66;5061862;28;20226;-62
2024/03/18 03:31:05;;;;;;;5.90;4.63;;;3.10;99.90;;;-141.84;66.46;18519.44;5077808;28;20224;-61
2024/03/18 03:33:33;;;;;;;7.60;4.93;;;3.10;99.90;;;-141.84;66.49;18484.91;5085505;28;20223;-61
2024/03/18 03:36:00;;;;;;;9.07;5.10;;;3.10;99.90;;;-141.84;65.91;18476.78;5067028;28;20223;-61
2024/03/18 03:38:28;;;;;;;7.27;4.90;;;3.10;99.90;;;-141.84;65.97;18456.47;5084148;28;20221;-55
2024/03/18 03:40:58;;;;;;;7.13;4.80;;;3.10;99.90;;;-141.84;66.27;18491.00;5086098;28;20200;-53
2024/03/18 03:43:25;;;;;;;8.73;5.10;;;3.10;99.90;;;-141.84;67.54;18501.16;5084399;28;20221;-51
2024/03/18 03:45:57;;;;;;;7.97;4.57;;;3.00;99.90;;;-141.84;66.95;18491.00;5071012;28;20217;-53
2024/03/18 03:48:30;;;;;;;6.07;4.70;;;3.00;99.90;;;-141.84;66.68;18486.94;5058521;28;20258;-53
2024/03/18 03:50:58;;;;;;;8.40;5.30;;;2.90;99.90;;;-141.84;66.75;18493.03;5062241;28;20232;-54
2024/03/18 03:53:27;;;;;;;7.47;5.10;;;3.00;99.90;;;-141.84;67.35;18513.34;5061607;28;20229;-52
2024/03/18 03:55:57;;;;;;;7.07;5.13;;;2.90;99.90;;;-141.84;67.19;18456.47;5067106;28;20198;-54
2024/03/18 03:58:26;;;;;;;8.00;4.67;;;2.80;99.90;;;-141.84;68.03;18452.41;5082155;28;20274;-53
2024/03/18 04:00:55;;;;;;;6.27;4.70;;;2.80;99.90;;;-141.84;67.96;18497.09;5083552;28;20219;-53
2024/03/18 04:03:26;;;;;;;7.13;5.10;;;2.80;99.90;;;-141.84;68.03;18499.13;5082975;28;20637;-52
2024/03/18 04:05:54;;;;;;;7.83;5.00;;;2.80;99.90;;;-141.84;68.53;18478.81;5085599;28;20221;-61
2024/03/18 04:08:22;;;;;;;7.63;5.03;;;2.70;99.90;;;-141.84;68.87;18474.75;5073188;28;20217;-54
2024/03/18 04:10:50;;;;;;;11.47;5.20;;;2.60;99.90;;;-141.84;68.50;18466.63;5081134;28;20232;-53
2024/03/18 04:13:19;;;;;;;7.47;5.03;;;2.60;99.90;;;-141.84;68.22;18442.25;5078699;28;20220;-54
2024/03/18 04:15:47;;;;;;;7.80;4.83;;;2.60;99.90;;;-141.84;68.67;18499.13;5085289;28;20216;-50
2024/03/18 04:18:17;;;;;;;7.17;5.10;;;2.60;99.90;;;-141.84;68.92;18460.53;5080872;28;20232;-55
2024/03/18 04:20:48;;;;;;;8.67;5.10;;;2.60;99.90;;;-141.84;69.10;18486.94;5075941;28;20752;-52
2024/03/18 04:23:16;;;;;;;10.13;5.03;;;2.60;99.90;;;-141.84;70.11;18493.03;5061950;28;20200;-50
2024/03/18 04:25:43;;;;;;;8.00;5.17;;;2.50;99.90;;;-141.84;70.15;18493.03;5083892;28;20201;-49
2024/03/18 04:28:11;;;;;;;6.97;4.90;;;2.40;99.90;;;-141.84;70.16;18495.06;5063648;28;20227;-50
2024/03/18 04:30:38;;;;;;;6.73;4.87;;;2.40;99.90;;;-141.84;69.92;18493.03;5076788;28;20212;-54
2024/03/18 04:33:06;;;;;;;7.97;5.03;;;2.40;99.90;;;-141.84;70.48;18462.56;5072426;28;20235;-53
2024/03/18 04:35:38;;;;;;;6.87;4.63;;;2.40;99.90;;;-141.84;70.41;18482.88;5056950;28;20228;-54
2024/03/18 04:38:06;;;;;;;7.37;4.80;;;2.40;99.90;;;-141.84;69.74;18446.31;5069804;28;20260;-53
2024/03/18 04:40:34;;;;;;;8.10;4.80;;;2.40;99.90;;;-141.84;70.25;18448.34;5082664;28;20208;-54
2024/03/18 04:43:01;;;;;;;8.27;4.93;;;2.30;99.90;;;-141.84;70.62;18476.78;5082376;28;20219;-53
2024/03/18 04:45:29;;;;;;;8.13;5.47;;;2.30;99.90;;;-141.84;70.80;18464.59;5081815;28;20213;-52
2024/03/18 04:47:56;;;;;;;7.13;4.93;;;2.30;99.90;;;-141.84;71.20;18493.03;5075319;28;20713;-54
2024/03/18 04:50:26;;;;;;;8.53;4.97;;;2.20;99.90;;;-141.84;71.94;18470.69;5062889;28;20224;-54
2024/03/18 04:52:55;;;;;;;8.07;5.40;;;2.10;99.90;;;-141.84;72.29;18454.44;5062825;28;20208;-54
2024/03/18 04:55:24;;;;;;;7.30;5.30;;;2.10;99.90;;;-141.84;72.80;18474.75;5086458;28;20224;-53
2024/03/18 04:57:54;;;;;;;8.70;5.33;;;2.00;99.90;;;-141.84;72.70;18464.59;5063247;28;20213;-61
2024/03/18 05:00:24;;;;;;;8.67;4.67;;;2.10;99.90;;;-141.84;70.73;18450.38;5023247;28;20224;-61
2024/03/18 05:02:52;;;;;;;7.57;5.00;;;2.20;99.90;;;-141.84;71.28;18432.09;5077188;28;20213;-60
2024/03/18 05:05:20;;;;;;;6.87;5.00;;;2.20;99.90;;;-141.84;71.25;18476.78;5079965;28;20603;-61
2024/03/18 05:07:48;;;;;;;8.93;4.83;;;2.20;99.90;;;-141.84;71.30;18452.41;5061130;28;20221;-53
2024/03/18 05:10:16;;;;;;;8.23;4.97;;;2.20;99.90;;;-141.84;72.00;18460.53;5074655;28;20231;-49
2024/03/18 05:12:45;;;;;;;7.53;5.00;;;2.20;99.90;;;-141.84;72.32;18454.44;5082998;28;20229;-53
2024/03/18 05:15:16;;;;;;;6.37;4.73;;;2.10;99.90;;;-141.84;72.71;18497.09;5080881;28;20224;-51
2024/03/18 05:17:44;;;;;;;6.47;5.20;;;2.00;99.90;;;-141.84;72.20;18450.38;5072862;28;20900;-49
2024/03/18 05:20:17;;;;;;;7.80;5.13;;;2.00;99.90;;;-141.84;72.73;18466.63;5062247;28;20204;-51
2024/03/18 05:22:44;;;;;;;8.00;5.40;;;2.00;99.90;;;-141.84;72.92;18442.25;5075125;28;20207;-53
2024/03/18 05:25:13;;;;;;;7.73;5.00;;;2.00;99.90;;;-141.84;72.88;18505.22;5083587;28;20220;-50
2024/03/18 05:27:41;;;;;;;8.07;5.60;;;2.00;99.90;;;-141.84;72.92;18491.00;5020039;28;20282;-61
2024/03/18 05:30:11;;;;;;;7.67;5.20;;;2.00;99.90;;;-141.84;73.33;18491.00;5069685;28;20633;-61
2024/03/18 05:32:41;;;;;;;8.70;5.10;;;2.00;99.90;;;-141.84;72.80;18460.53;5032539;28;20282;-61
2024/03/18 05:35:09;;;;;;;6.90;5.23;;;2.00;99.90;;;-141.84;73.38;18468.66;5065047;28;20213;-62
2024/03/18 05:37:37;;;;;;;10.47;5.00;;;2.00;99.90;;;-141.84;72.50;18432.09;5083831;28;20223;-60
2024/03/18 05:40:08;;;;;;;8.50;5.40;;;2.00;99.90;;;-141.84;73.20;18458.50;5081806;28;20227;-61
2024/03/18 05:42:36;;;;;;;9.57;5.30;;;2.00;99.90;;;-141.84;72.97;18436.16;5061908;28;20255;-62
2024/03/18 05:45:04;;;;;;;9.67;5.97;;;2.00;99.90;;;-141.84;73.29;18448.34;5071550;28;20226;-54
2024/03/18 05:47:35;;;;;;;6.10;4.60;;;2.00;99.90;;;-141.84;73.57;18476.78;5078316;28;20578;-53
2024/03/18 05:50:02;;;;;;;9.43;5.10;;;2.00;99.90;;;-141.84;73.71;18486.94;5073496;28;20207;-52
2024/03/18 05:52:30;;;;;;;9.10;5.77;;;2.00;99.90;;;-141.84;72.64;18434.13;5082341;28;20568;-50
2024/03/18 05:54:59;;;;;;;10.03;5.63;;;2.00;99.90;;;-141.84;71.66;18430.06;5083527;28;20229;-53
2024/03/18 05:57:27;;;;;;;7.23;5.30;;;2.00;99.90;;;-141.84;71.27;18411.75;5074509;28;20209;-51
2024/03/18 05:59:54;;;;;;;6.23;4.83;;;2.10;99.90;;;-141.84;70.96;18397.53;5084232;28;20224;-52
2024/03/18 06:02:21;;;;;;;8.83;5.63;;;2.20;99.90;;;-141.84;71.55;18409.72;5080772;28;21313;-54
2024/03/18 06:04:50;;;;;;;8.33;5.00;;;2.10;99.90;;;-141.84;72.32;18440.22;5074679;28;20254;-54
2024/03/18 06:07:21;;;;;;;7.53;5.47;;;2.10;99.90;;;-141.84;70.93;18401.59;5067419;28;20697;-55
2024/03/18 06:09:48;;;;;;;7.27;5.00;;;2.20;99.90;;;-141.84;70.53;18403.63;5078028;28;20281;-50
2024/03/18 06:12:18;;;;;;;8.10;5.60;;;2.30;99.90;;;-141.84;70.94;18425.97;5082411;28;20216;-54
2024/03/18 06:14:45;;;;;;;8.23;5.03;;;2.40;99.90;;;-141.84;70.04;18413.78;5082573;28;20224;-51
2024/03/18 06:17:13;;;;;;;7.20;5.20;;;2.40;99.90;;;-141.84;70.64;18415.81;5063946;28;20192;-52
2024/03/18 06:19:41;;;;;;;8.43;5.73;;;2.40;99.90;;;-141.84;71.52;18419.88;5018875;28;20208;-53
2024/03/18 06:22:20;;;;;;;6.90;5.30;;;2.40;99.90;;;-141.84;70.99;18430.06;5083948;28;20224;-53
2024/03/18 06:27:37;;;;;;;7.03;5.50;;;2.60;99.90;;;-141.84;68.73;18436.16;5068254;28;20224;-55
2024/03/18 06:30:06;;;;;;;8.70;5.33;;;2.60;99.90;;;-141.84;68.85;18411.75;5067932;28;20220;-50
2024/03/18 06:32:35;;;;;;;9.13;5.40;;;2.60;99.90;;;-141.84;69.25;18399.56;5062858;28;20226;-52
2024/03/18 06:35:04;;;;;;;8.03;4.73;;;2.70;99.90;;;-141.84;69.01;18419.88;5065024;28;20200;-51
2024/03/18 06:37:36;;;;;;;10.00;5.40;;;2.70;99.90;;;-141.84;67.37;18436.16;5066711;28;20195;-53
2024/03/18 06:40:04;;;;;;;8.77;4.67;;;2.80;99.90;;;-141.84;67.36;18391.44;5064475;28;20217;-53
2024/03/18 06:42:31;;;;;;;8.20;5.10;;;2.90;99.90;;;-141.84;67.62;18401.59;5074578;28;20268;-53
2024/03/18 06:44:58;;;;;;;9.63;5.60;;;2.90;99.90;;;-141.84;66.33;18440.22;5081641;28;20247;-52
2024/03/18 06:47:26;;;;;;;10.80;5.20;;;3.00;99.90;;;-141.84;66.02;18377.22;5078046;28;20215;-54
2024/03/18 06:49:54;;;;;;;7.13;4.80;;;3.20;99.90;;;-141.84;64.94;18428.03;5061892;28;20202;-55
2024/03/18 06:52:21;;;;;;;9.70;4.90;;;3.20;99.90;;;-141.84;65.20;18415.81;5081042;28;20636;-54
2024/03/18 06:54:49;;;;;;;8.10;5.27;;;3.30;99.90;;;-141.84;64.66;18423.94;5083475;28;20224;-60
2024/03/18 06:57:16;;;;;;;7.23;5.03;;;3.40;99.90;;;-141.84;64.66;18409.72;5083351;28;20708;-61
2024/03/18 06:59:43;;;;;;;9.10;5.53;;;3.50;99.90;;;-141.84;64.56;18419.88;5084333;28;20232;-60
2024/03/18 07:02:10;;;;;;;8.80;5.30;;;3.60;99.90;;;-141.84;62.97;18436.16;5087450;28;20205;-61
2024/03/18 07:04:37;;;;;;;8.43;5.10;;;3.70;99.90;;;-141.84;62.75;18458.50;5098726;28;20208;-60
2024/03/18 07:07:05;;;;;;;7.23;4.83;;;3.80;99.90;;;-141.84;63.17;18454.44;5063246;28;20217;-61
2024/03/18 07:09:33;;;;;;;7.97;5.70;;;3.90;99.90;;;-141.84;62.25;18448.34;5077633;28;20742;-61
2024/03/18 07:12:02;;;;;;;8.13;4.97;;;3.90;99.90;;;-141.84;61.71;18468.66;5080822;28;20708;-61
2024/03/18 07:14:29;;;;;;;7.10;4.80;;;4.00;99.90;;;-141.84;61.78;18448.34;5081308;28;20239;-61
2024/03/18 07:16:56;;;;;;;7.83;4.97;;;4.00;99.90;;;-141.84;61.76;18442.25;5063358;28;20233;-60
2024/03/18 07:19:24;;;;;;;8.80;4.90;;;4.10;99.90;;;-141.84;61.86;18468.66;5101280;28;20217;-60
2024/03/18 07:21:51;;;;;;;8.30;5.53;;;4.20;99.90;;;-141.84;62.11;18464.59;5092455;28;20226;-61
2024/03/18 07:24:18;;;;;;;7.37;4.70;;;4.30;99.90;;;-141.84;60.30;18501.16;5081217;28;20231;-61
2024/03/18 07:26:46;;;;;;;8.67;5.33;;;4.40;99.90;;;-141.84;60.04;18503.19;5080722;28;20217;-61
2024/03/18 07:29:15;;;;;;;8.37;5.17;;;4.50;99.90;;;-141.84;59.03;18517.41;5068205;28;20215;-61
2024/03/18 07:31:42;;;;;;;6.47;4.57;;;4.60;99.90;;;-141.84;58.64;18501.16;5081573;28;20199;-61
2024/03/18 07:34:09;;;;;;;7.53;4.60;;;4.60;99.90;;;-141.84;58.56;18488.97;5080504;28;20230;-62
2024/03/18 07:36:39;;;;;;;8.97;4.90;;;4.80;99.90;;;-141.84;57.64;18517.41;5081807;28;20263;-55
2024/03/18 07:39:06;;;;;;;7.40;4.90;;;4.90;99.90;;;-141.84;57.70;18521.47;5073406;28;20227;-57
2024/03/18 07:41:35;;;;;;;7.47;4.70;;;5.00;99.90;;;-141.84;56.89;18562.09;5064418;28;20220;-59
2024/03/18 07:44:02;;;;;;;8.83;5.03;;;5.20;99.90;;;-141.84;56.44;18539.75;5061161;28;20219;-56
2024/03/18 07:46:31;;;;;;;7.90;4.97;;;5.30;99.90;;;-141.84;56.63;18547.88;5069715;28;20250;-57
2024/03/18 07:48:58;;;;;;;7.17;5.17;;;5.40;99.90;;;-141.84;56.58;18525.53;5067455;28;20693;-57
2024/03/18 07:51:26;;;;;;;10.07;5.50;;;5.50;99.90;;;-141.84;55.86;18539.75;5071339;28;20277;-58
2024/03/18 07:53:58;;;;;;;6.83;4.80;;;5.50;99.90;;;-141.84;56.32;18543.81;5076930;28;20250;-58
2024/03/18 07:56:25;;;;;;;6.90;5.13;;;5.60;99.90;;;-141.84;55.33;18572.25;5062494;28;20235;-57
2024/03/18 07:58:53;;;;;;;6.07;5.20;;;5.70;99.90;;;-141.84;55.21;18549.91;5064486;28;20205;-61
2024/03/18 08:01:20;;;;;;;7.93;5.00;;;5.70;99.90;;;-141.84;54.32;18582.44;5083018;28;20271;-61
2024/03/18 08:03:49;;;;;;;7.63;4.57;;;5.80;99.90;;;-141.84;54.22;18614.94;5062182;28;20634;-61
2024/03/18 08:06:18;;;;;;;7.57;4.70;;;5.90;99.90;;;-141.84;54.14;18606.81;5060143;28;20221;-63
2024/03/18 08:08:45;;;;;;;6.27;4.60;;;6.00;99.90;;;-141.84;53.80;18600.72;5061657;28;20228;-60
2024/03/18 08:11:13;;;;;;;10.27;6.80;;;6.10;99.90;;;-141.84;52.94;18602.75;5062269;28;20236;-60
2024/03/18 08:13:40;;;;;;;6.27;4.30;;;6.30;99.90;;;-141.84;53.06;18602.75;5061319;28;20209;-60
2024/03/18 08:16:07;;;;;;;6.63;4.50;;;6.40;99.90;;;-141.84;52.93;18641.34;5061379;28;20228;-59
2024/03/18 08:18:35;;;;;;;6.83;4.43;;;6.50;99.90;;;-141.84;51.42;18619.00;5068064;28;20596;-60
2024/03/18 08:21:04;;;;;;;6.23;4.67;;;6.60;99.90;;;-141.84;51.36;18627.13;5062357;28;20640;-60
2024/03/18 08:23:32;;;;;;;6.03;4.63;;;6.60;99.90;;;-141.84;51.14;18663.69;5067560;28;20696;-60
2024/03/18 08:25:59;;;;;;;8.50;4.87;;;6.60;99.90;;;-141.84;51.09;18659.63;5006216;28;20762;-59
2024/03/18 08:28:27;;;;;;;6.83;4.47;;;6.80;99.90;;;-141.84;51.23;18647.44;5053955;28;20220;-59
2024/03/18 08:30:55;;;;;;;6.23;4.47;;;6.80;99.90;;;-141.84;51.04;18679.94;5080101;28;20225;-60
2024/03/18 08:33:22;;;;;;;6.50;4.83;;;6.80;99.90;;;-141.84;51.21;18671.81;5084367;28;20216;-60
2024/03/18 08:35:51;;;;;;;8.13;4.90;;;6.90;99.90;;;-141.84;51.13;18673.84;5081552;28;20735;-59
2024/03/18 08:38:21;;;;;;;6.30;5.13;;;7.00;99.90;;;-141.84;50.66;18688.06;5060170;28;20216;-60
2024/03/18 08:40:54;;;;;;;9.20;4.87;;;7.10;99.90;;;-141.84;50.82;18669.78;5084504;28;20220;-60
2024/03/18 08:43:21;;;;;;;8.13;5.27;;;7.10;99.90;;;-141.84;50.81;18684.00;5060442;28;20219;-61
2024/03/18 08:45:53;;;;;;;5.43;4.43;;;7.10;99.90;;;-141.84;50.38;18700.25;5071159;28;20248;-61
2024/03/18 08:48:21;;;;;;;5.30;4.37;;;7.20;99.90;;;-141.84;50.50;18659.63;5070002;28;20673;-60
2024/03/18 08:50:49;;;;;;;6.43;4.70;;;7.30;99.90;;;-141.84;49.88;18706.38;5064098;28;20216;-61
2024/03/18 08:53:17;;;;;;;8.40;5.30;;;7.30;99.90;;;-141.84;49.30;18665.72;5090878;28;20215;-61
2024/03/18 08:55:49;;;;;;;7.30;4.93;;;7.40;99.90;;;-141.84;49.36;18708.41;5082084;28;20725;-60
2024/03/18 08:58:18;;;;;;;6.70;4.77;;;7.50;99.90;;;-141.84;49.14;18679.94;5079459;28;20220;-61
2024/03/18 09:00:46;;;;;;;5.97;4.50;;;7.50;99.90;;;-141.84;47.86;18740.91;5061206;28;20225;-60
2024/03/18 09:03:13;;;;;;;6.63;5.03;;;7.60;99.90;;;-141.84;48.43;18734.81;5071541;28;20250;-58
2024/03/18 09:05:41;;;;;;;6.13;4.47;;;7.60;99.90;;;-141.84;48.64;18757.16;5079365;28;20696;-59
2024/03/18 09:08:08;;;;;;;6.63;4.30;;;7.70;99.90;;;-141.84;47.55;18714.50;5078665;28;20270;-60
2024/03/18 09:10:39;;;;;;;6.90;4.80;;;7.70;99.90;;;-141.84;47.46;18730.75;5086961;28;20204;-60
2024/03/18 09:13:09;;;;;;;9.70;4.07;;;7.80;99.90;;;-141.84;47.09;18736.84;5075530;28;20219;-61
2024/03/18 09:15:36;;;;;;;4.47;3.83;;;7.90;99.90;;;-141.84;45.81;18744.97;5073519;28;20677;-62
2024/03/18 09:18:04;;;;;;;6.10;4.07;;;7.90;99.90;;;-141.84;45.64;18740.91;5067431;28;20695;-61
2024/03/18 09:20:31;;;;;;;7.97;4.27;;;8.00;99.90;;;-141.84;45.66;18761.22;5064179;28;20617;-61
2024/03/18 09:22:59;;;;;;;5.80;4.10;;;8.00;99.90;;;-141.84;45.39;18820.16;5058707;28;20196;-59
2024/03/18 09:25:26;;;;;;;6.30;4.20;;;8.00;99.90;;;-141.84;45.09;18785.59;5081392;28;20262;-60
2024/03/18 09:27:53;;;;;;;4.57;3.90;;;8.10;99.90;;;-141.84;44.57;18795.75;5080936;28;20699;-60
2024/03/18 09:30:24;;;;;;;6.43;3.77;;;8.10;99.90;;;-141.84;44.77;18816.06;5066329;28;20624;-60
2024/03/18 09:32:53;;;;;;;5.03;3.80;;;8.10;99.90;;;-141.84;44.64;18850.63;5059000;28;20606;-62
2024/03/18 09:35:22;;;;;;;6.47;4.03;;;8.20;99.90;;;-141.84;44.45;18797.78;5057890;28;20220;-62
2024/03/18 09:37:49;;;;;;;4.77;3.93;;;8.10;99.90;;;-141.84;44.50;18783.56;5082596;28;20208;-62
2024/03/18 09:40:17;;;;;;;4.80;3.87;;;8.20;99.90;;;-141.84;44.00;18832.34;5087781;28;20258;-62
2024/03/18 09:42:44;;;;;;;5.73;3.87;;;8.40;99.90;;;-141.84;43.50;18840.47;5061487;28;20220;-62
2024/03/18 09:45:17;;;;;;;8.13;4.43;;;8.50;99.90;;;-141.84;43.88;18846.56;5061415;28;20225;-62
2024/03/18 09:47:49;;;;;;;6.57;4.13;;;8.60;99.90;;;-141.84;44.00;18838.44;5029075;28;20221;-60
2024/03/18 09:50:18;;;;;;;6.00;4.20;;;8.70;99.90;;;-141.84;43.74;18866.88;5055843;28;20251;-61
2024/03/18 09:52:48;;;;;;;5.87;4.23;;;8.70;99.90;;;-141.84;44.02;18862.81;5088920;28;20200;-62
2024/03/18 09:55:23;;;;;;;6.27;4.13;;;8.60;99.90;;;-141.84;44.04;18856.72;5085328;28;20212;-61
2024/03/18 09:57:51;;;;;;;6.10;4.23;;;8.70;99.90;;;-141.84;43.86;18842.50;5078703;28;20289;-60
2024/03/18 10:00:21;;;;;;;6.30;4.40;;;8.70;99.90;;;-141.84;43.86;18854.69;5068861;28;20232;-61
2024/03/18 10:02:50;;;;;;;6.43;4.43;;;8.70;99.90;;;-141.84;43.52;18868.91;5063317;28;20229;-61
2024/03/18 10:05:18;;;;;;;5.90;4.40;;;8.80;99.90;;;-141.84;43.04;18891.25;5066513;28;20228;-61
2024/03/18 10:07:46;;;;;;;6.03;4.23;;;8.80;99.90;;;-141.84;43.50;18868.91;5058898;28;20840;-60
2024/03/18 10:10:20;;;;;;;6.37;5.07;;;8.70;99.90;;;-141.84;43.99;18832.34;5074736;28;20344;-60
2024/03/18 10:12:49;;;;;;;5.87;4.17;;;8.70;99.90;;;-141.84;42.90;18862.81;5079451;28;20696;-60
2024/03/18 10:15:17;;;;;;;7.33;4.10;;;8.70;99.90;;;-141.84;43.32;18850.63;5081719;28;20656;-59
2024/03/18 10:17:45;;;;;;;4.10;3.70;;;8.70;99.90;;;-141.84;42.71;18923.78;5078485;28;20228;-59
2024/03/18 10:20:19;;;;;;;5.53;3.90;;;8.90;99.90;;;-141.84;42.31;18850.63;5073004;28;20205;-58